Time;durP1;ratioP1;P1;durP2;ratioP2;P2;SDS_P1;SDS_P2;PMS_P1;PMS_P2;Temp;Humidity;BMP_temperature;BMP_pressure;BME280_temperature;BME280_humidity;BME280_pressure;Samples;Min_cycle;Max_cycle;Signal;HPM_P1;HPM_P2
2024/04/08 00:00:42;;;;;;;5.18;2.55;;;;;;;-144.05;93.20;56874.31;5025138;28;21161;-85
2024/04/08 00:03:08;;;;;;;10.40;2.47;;;;;;;-144.05;93.32;56874.31;5044006;28;20030;-86
2024/04/08 00:05:35;;;;;;;9.63;3.30;;;;;;;-144.05;93.61;56865.81;5015839;28;20025;-84
2024/04/08 00:08:01;;;;;;;6.22;3.05;;;;;;;-144.05;93.57;56870.06;5027308;28;20403;-87
2024/04/08 00:10:27;;;;;;;7.82;2.80;;;11.70;99.90;;;-144.05;93.37;56865.81;5021780;28;20128;-85
2024/04/08 00:12:54;;;;;;;11.10;3.22;;;;;;;-144.05;94.23;56880.69;5034552;28;20030;-86
2024/04/08 00:15:20;;;;;;;8.30;2.88;;;11.50;99.90;;;-144.05;94.56;56855.22;5033311;28;20083;-85
2024/04/08 00:17:46;;;;;;;10.15;3.08;;;;;;;-144.05;94.44;56850.97;5029892;28;20427;-85
2024/04/08 00:20:13;;;;;;;9.55;3.00;;;;;;;-144.05;94.30;56895.56;5021076;28;20026;-86
2024/04/08 00:22:40;;;;;;;16.60;3.83;;;13.60;99.90;;;-144.05;94.51;56872.19;5033414;28;20075;-83
2024/04/08 00:25:09;;;;;;;6.55;2.65;;;13.50;99.90;;;-144.05;95.00;56870.06;5025845;28;20030;-84
2024/04/08 00:27:36;;;;;;;10.35;3.00;;;;;;;-144.05;94.79;56872.19;5033443;28;20136;-86
2024/04/08 00:30:04;;;;;;;7.88;3.20;;;13.60;99.90;;;-144.05;94.58;56882.81;5029523;28;20125;-85
2024/04/08 00:32:31;;;;;;;7.72;3.00;;;11.40;99.90;;;-144.05;94.79;56876.44;5013644;28;20026;-85
2024/04/08 00:34:57;;;;;;;6.82;2.53;;;15.30;99.90;;;-144.05;94.90;56855.22;5033792;28;20021;-87
2024/04/08 00:37:24;;;;;;;8.63;3.35;;;;;;;-144.05;94.99;56842.47;5023525;28;20549;-87
2024/04/08 00:39:50;;;;;;;7.40;3.40;;;;;;;-144.05;95.30;56867.94;5025235;28;20087;-85
2024/04/08 00:42:17;;;;;;;5.28;2.67;;;;;;;-144.05;95.33;56878.56;5023663;28;20452;-85
2024/04/08 00:44:44;;;;;;;11.07;3.58;;;;;;;-144.05;95.21;56872.19;5016083;28;20394;-84
2024/04/08 00:47:11;;;;;;;13.07;4.05;;;;;;;-144.05;94.99;56859.47;5025245;28;20119;-84
2024/04/08 00:49:42;;;;;;;6.90;3.20;;;13.50;99.90;;;-144.05;95.10;56876.44;5031854;28;20126;-85
2024/04/08 00:52:14;;;;;;;7.50;3.15;;;13.50;99.90;;;-144.05;95.10;56884.94;5031555;28;20026;-88
2024/04/08 00:54:41;;;;;;;8.05;2.65;;;;;;;-144.05;94.94;56865.81;5032264;28;20120;-87
2024/04/08 00:57:15;;;;;;;9.32;3.38;;;13.40;99.90;;;-144.05;95.24;56861.56;5033586;28;20591;-85
2024/04/08 00:59:41;;;;;;;7.45;2.88;;;;;;;-144.05;95.20;56870.06;5032277;28;20026;-85
2024/04/08 01:02:08;;;;;;;6.43;2.38;;;;;;;-144.05;95.02;56863.69;5032147;28;20336;-86
2024/04/08 01:04:34;;;;;;;4.30;2.45;;;;;;;-144.05;94.76;56880.69;5023320;28;20033;-85
2024/04/08 01:07:01;;;;;;;6.28;2.67;;;;;;;-144.05;94.75;56870.06;5030264;28;20048;-87
2024/04/08 01:09:28;;;;;;;11.70;3.13;;;13.30;99.90;;;-144.05;94.92;56850.97;5024210;28;20053;-87
2024/04/08 01:11:57;;;;;;;5.57;2.42;;;13.30;99.90;;;-144.05;94.71;56867.94;5025545;28;20021;-86
2024/04/08 01:14:24;;;;;;;6.03;2.55;;;;;;;-144.05;94.72;56865.81;5032560;28;20025;-87
2024/04/08 01:16:50;;;;;;;6.55;3.40;;;;;;;-144.05;94.97;56899.81;5039862;28;20037;-87
2024/04/08 01:19:22;;;;;;;4.70;2.75;;;;;;;-144.05;94.62;56870.06;5033615;28;20033;-88
2024/04/08 01:21:50;;;;;;;5.43;2.60;;;;;;;-144.05;94.69;56850.97;5045592;28;20040;-85
2024/04/08 01:24:16;;;;;;;5.03;3.20;;;;;;;-144.05;94.76;56867.94;5057316;28;20033;-83
2024/04/08 01:26:42;;;;;;;5.65;3.08;;;;;;;-144.05;94.97;56867.94;5029626;28;20042;-85
2024/04/08 01:29:09;;;;;;;6.03;3.53;;;;;;;-144.05;94.86;56848.84;5018340;28;20053;-86
2024/04/08 01:31:35;;;;;;;9.00;2.97;;;;;;;-144.05;95.12;56861.56;5022190;28;20044;-87
2024/04/08 01:34:02;;;;;;;6.68;3.03;;;;;;;-144.05;95.43;56910.44;5025633;28;20479;-87
2024/04/08 01:36:29;;;;;;;6.85;3.35;;;;;;;-144.05;95.39;56857.34;5014209;28;20045;-88
2024/04/08 01:38:56;;;;;;;5.40;2.50;;;;;;;-144.05;95.56;56874.31;5027438;28;20037;-86
2024/04/08 01:41:23;;;;;;;5.70;2.60;;;;;;;-144.05;95.35;56859.47;5014127;28;20076;-87
2024/04/08 01:43:49;;;;;;;4.07;2.50;;;;;;;-144.05;95.30;56865.81;5023851;28;20038;-88
2024/04/08 01:46:16;;;;;;;8.50;3.40;;;;;;;-144.05;95.60;56865.81;5023424;28;20022;-86
2024/04/08 01:48:42;;;;;;;6.53;2.95;;;;;;;-144.05;95.58;56853.09;5020085;28;20034;-86
2024/04/08 01:51:09;;;;;;;8.38;3.15;;;;;;;-144.05;95.88;56857.34;5034416;28;20021;-86
2024/04/08 01:53:36;;;;;;;7.25;3.65;;;;;;;-144.05;96.14;56882.81;5030760;28;20030;-85
2024/04/08 01:56:02;;;;;;;11.40;4.00;;;;;;;-144.05;95.58;56853.09;5031137;28;20032;-87
2024/04/08 01:58:28;;;;;;;8.88;3.75;;;;;;;-144.05;95.47;56880.69;5030850;28;20021;-88
2024/04/08 02:00:55;;;;;;;8.50;3.35;;;;;;;-144.05;95.52;56878.56;5031840;28;20056;-87
2024/04/08 02:03:21;;;;;;;8.50;3.88;;;;;;;-144.05;95.76;56865.81;5014725;28;20087;-87
2024/04/08 02:05:47;;;;;;;8.38;3.50;;;;;;;-144.05;95.59;56863.69;5023106;28;20033;-86
2024/04/08 02:08:13;;;;;;;11.13;4.20;;;;;;;-144.05;95.67;56880.69;5022898;28;20500;-86
2024/04/08 02:10:40;;;;;;;9.00;4.57;;;;;;;-144.05;96.72;56891.31;5030716;28;20156;-86
2024/04/08 02:13:07;;;;;;;13.85;4.22;;;;;;;-144.05;96.57;56876.44;5044281;28;20364;-86
2024/04/08 02:15:32;;;;;;;9.38;4.85;;;10.50;99.90;;;-144.05;96.47;56880.69;5027202;28;20028;-88
2024/04/08 02:17:59;;;;;;;14.52;5.53;;;;;;;-144.05;96.59;56882.81;5024546;28;20029;-87
2024/04/08 02:20:25;;;;;;;12.40;4.13;;;;;;;-144.05;96.19;56882.81;5029419;28;20032;-86
2024/04/08 02:22:51;;;;;;;13.30;4.20;;;;;;;-144.05;95.94;56887.06;5023652;28;20564;-85
2024/04/08 02:25:18;;;;;;;9.55;3.88;;;;;;;-144.05;96.01;56916.81;5030644;28;20091;-85
2024/04/08 02:27:44;;;;;;;5.90;3.85;;;;;;;-144.05;96.14;56876.44;5027600;28;20399;-87
2024/04/08 02:30:11;;;;;;;7.97;4.05;;;;;;;-144.05;95.81;56863.69;5011131;28;20459;-85
2024/04/08 02:32:38;;;;;;;7.63;2.55;;;;;;;-144.05;95.50;56878.56;5021017;28;20034;-87
2024/04/08 02:35:06;;;;;;;9.18;3.60;;;;;;;-144.05;95.51;56878.56;5030297;28;20125;-87
2024/04/08 02:37:33;;;;;;;9.68;3.58;;;;;;;-144.05;95.56;56870.06;5025151;28;20063;-87
2024/04/08 02:39:59;;;;;;;8.20;3.53;;;;;;;-144.05;95.52;56874.31;5042593;28;20028;-88
2024/04/08 02:42:25;;;;;;;8.52;3.75;;;;;;;-144.05;95.15;56895.56;5041702;28;20112;-86
2024/04/08 02:44:52;;;;;;;9.07;3.30;;;;;;;-144.05;95.25;56904.06;5020854;28;20025;-85
2024/04/08 02:47:18;;;;;;;7.95;3.80;;;;;;;-144.05;95.10;56855.22;5011972;28;20026;-85
2024/04/08 02:49:45;;;;;;;7.95;3.90;;;;;;;-144.05;95.61;56884.94;5011383;28;20038;-88
2024/04/08 02:52:11;;;;;;;8.18;4.18;;;;;;;-144.05;95.82;56880.69;5041535;28;20116;-87
2024/04/08 02:54:37;;;;;;;11.55;4.30;;;;;;;-144.05;95.41;56884.94;5043003;28;20026;-88
2024/04/08 02:57:03;;;;;;;8.77;4.68;;;14.60;99.90;;;-144.05;95.55;56874.31;5050837;28;20014;-88
2024/04/08 02:59:30;;;;;;;8.10;4.03;;;;;;;-144.05;95.71;56861.56;5026124;28;20069;-86
2024/04/08 03:01:56;;;;;;;9.75;4.55;;;;;;;-144.05;95.98;56880.69;5021059;28;20464;-87
2024/04/08 03:04:22;;;;;;;8.27;3.80;;;;;;;-144.05;95.57;56867.94;5011213;28;20030;-84
2024/04/08 03:06:48;;;;;;;12.95;4.43;;;;;;;-144.05;95.53;56863.69;5019478;28;20527;-84
2024/04/08 03:09:15;;;;;;;9.75;4.85;;;;;;;-144.05;95.72;56876.44;5018642;28;20376;-86
2024/04/08 03:11:41;;;;;;;11.30;6.05;;;;;;;-144.05;96.14;56865.81;5031602;28;20095;-86
2024/04/08 03:14:07;;;;;;;11.70;6.00;;;;;;;-144.05;95.86;56878.56;5032094;28;20128;-87
2024/04/08 03:16:34;;;;;;;15.85;6.18;;;;;;;-144.05;96.14;56874.31;5039639;28;20090;-87
2024/04/08 03:19:00;;;;;;;9.75;5.47;;;;;;;-144.05;95.98;56887.06;5029936;28;20057;-89
2024/04/08 03:21:26;;;;;;;14.88;5.70;;;;;;;-144.05;96.19;56857.34;5039434;28;20032;-89
2024/04/08 03:23:52;;;;;;;13.40;6.28;;;;;;;-144.05;96.95;56876.44;5035480;28;20010;-83
2024/04/08 03:26:19;;;;;;;11.98;6.15;;;;;;;-144.05;96.91;56848.84;5022294;28;20411;-87
2024/04/08 03:28:45;;;;;;;11.07;6.15;;;;;;;-144.05;96.49;56872.19;5033531;28;20029;-84
2024/04/08 03:31:13;;;;;;;12.23;5.90;;;;;;;-144.05;96.14;56850.97;5033316;28;20022;-84
2024/04/08 03:33:39;;;;;;;12.52;6.32;;;;;;;-144.05;96.67;56874.31;5034094;28;20040;-85
2024/04/08 03:36:10;;;;;;;9.30;5.60;;;;;;;-144.05;96.16;56887.06;5028286;28;20036;-86
2024/04/08 03:38:37;;;;;;;14.25;5.85;;;;;;;-144.05;96.48;56882.81;5022323;28;20034;-86
2024/04/08 03:41:06;;;;;;;11.23;5.97;;;12.90;99.90;;;-144.05;97.03;56880.69;5019841;28;20536;-87
2024/04/08 03:43:33;;;;;;;9.32;4.95;;;;;;;-144.05;96.57;56887.06;5026341;28;20383;-86
2024/04/08 03:46:00;;;;;;;9.73;5.68;;;;;;;-144.05;96.20;56904.06;5029398;28;20034;-86
2024/04/08 03:48:27;;;;;;;6.72;4.55;;;;;;;-144.05;96.26;56861.56;5039288;28;20072;-86
2024/04/08 03:50:53;;;;;;;9.23;4.85;;;;;;;-144.05;96.32;56859.47;5033954;28;20030;-87
2024/04/08 03:53:19;;;;;;;8.35;4.18;;;;;;;-144.05;96.21;56870.06;5033690;28;20072;-86
2024/04/08 03:55:45;;;;;;;7.80;4.07;;;;;;;-144.05;96.31;56874.31;5039824;28;20125;-87
2024/04/08 03:58:12;;;;;;;10.07;3.83;;;;;;;-144.05;95.96;56867.94;5014414;28;20033;-87
2024/04/08 04:00:38;;;;;;;7.57;3.65;;;;;;;-144.05;95.97;56874.31;5025374;28;20045;-86
2024/04/08 04:03:05;;;;;;;10.85;4.43;;;;;;;-144.05;96.11;56876.44;5022384;28;20038;-85
2024/04/08 04:05:31;;;;;;;7.88;3.67;;;;;;;-144.05;95.75;56872.19;5016706;28;20080;-86
2024/04/08 04:07:57;;;;;;;10.02;3.58;;;;;;;-144.05;95.87;56867.94;5038373;28;20361;-87
2024/04/08 04:10:24;;;;;;;8.25;3.35;;;;;;;-144.05;95.64;56878.56;5022334;28;20068;-87
2024/04/08 04:12:50;;;;;;;8.70;3.28;;;;;;;-144.05;95.70;56865.81;5030103;28;20060;-87
2024/04/08 04:15:16;;;;;;;9.77;3.65;;;;;;;-144.05;95.56;56884.94;5013740;28;20040;-85
2024/04/08 04:17:43;;;;;;;6.88;3.88;;;;;;;-144.05;95.63;56878.56;5024210;28;20061;-86
2024/04/08 04:20:15;;;;;;;6.38;3.22;;;12.40;99.90;;;-144.05;95.39;56872.19;5026135;28;20598;-87
2024/04/08 04:22:42;;;;;;;5.22;3.45;;;;;;;-144.05;95.35;56876.44;5035345;28;20037;-85
2024/04/08 04:25:08;;;;;;;5.65;2.90;;;;;;;-144.05;95.45;56895.56;5025837;28;20088;-83
2024/04/08 04:27:37;;;;;;;7.80;3.33;;;;;;;-144.05;95.42;56859.47;5031556;28;20048;-86
2024/04/08 04:30:04;;;;;;;7.03;3.28;;;;;;;-144.05;95.59;56870.06;5033533;28;20030;-89
2024/04/08 04:32:30;;;;;;;7.80;3.33;;;;;;;-144.05;95.60;56870.06;5031096;28;20033;-88
2024/04/08 04:34:56;;;;;;;12.52;3.60;;;;;;;-144.05;95.57;56876.44;5026849;28;20034;-86
2024/04/08 04:37:23;;;;;;;10.32;4.03;;;;;;;-144.05;95.56;56863.69;5014869;28;20076;-86
2024/04/08 04:39:49;;;;;;;5.70;2.85;;;9.30;99.90;;;-144.05;95.55;56874.31;5021807;28;20423;-85
2024/04/08 04:42:16;;;;;;;7.32;2.95;;;;;;;-144.05;95.55;56867.94;5029249;28;20026;-86
2024/04/08 04:44:42;;;;;;;8.35;3.40;;;;;;;-144.05;95.83;56870.06;5025212;28;20373;-87
2024/04/08 04:47:10;;;;;;;8.80;3.10;;;;;;;-144.05;95.68;56882.81;5032721;28;20090;-86
2024/04/08 04:49:36;;;;;;;10.05;3.95;;;;;;;-144.05;95.38;56889.19;5031865;28;20029;-87
2024/04/08 04:52:03;;;;;;;9.90;3.55;;;;;;;-144.05;95.40;56895.56;5014315;28;20038;-86
2024/04/08 04:54:30;;;;;;;10.95;4.18;;;;;;;-144.05;95.55;56891.31;5023262;28;20037;-86
2024/04/08 04:56:56;;;;;;;9.15;3.83;;;;;;;-144.05;95.60;56859.47;5016381;28;20036;-85
2024/04/08 04:59:24;;;;;;;8.40;4.43;;;12.60;99.90;;;-144.05;95.42;56878.56;5032413;28;20029;-86
2024/04/08 05:01:51;;;;;;;8.10;4.43;;;;;;;-144.05;95.49;56876.44;5023218;28;20719;-84
2024/04/08 05:04:17;;;;;;;10.48;4.32;;;;;;;-144.05;95.12;56887.06;5034845;28;20409;-84
2024/04/08 05:06:43;;;;;;;7.85;4.78;;;;;;;-144.05;95.12;56887.06;5034372;28;20021;-84
2024/04/08 05:09:10;;;;;;;17.30;5.20;;;;;;;-144.05;95.22;56870.06;5045432;28;20033;-86
2024/04/08 05:11:37;;;;;;;10.88;4.93;;;;;;;-144.05;95.17;56882.81;5033609;28;20025;-85
2024/04/08 05:14:03;;;;;;;8.35;4.07;;;;;;;-144.05;94.98;56880.69;5040847;28;20121;-86
2024/04/08 05:16:29;;;;;;;9.57;4.43;;;;;;;-144.05;94.81;56893.44;5030856;28;20035;-84
2024/04/08 05:18:55;;;;;;;7.65;3.92;;;;;;;-144.05;94.72;56870.06;5032977;28;20039;-84
2024/04/08 05:21:21;;;;;;;11.60;3.97;;;14.10;99.90;;;-144.05;94.36;56882.81;5033792;28;20054;-90
2024/04/08 05:23:51;;;;;;;8.68;3.63;;;;;;;-144.05;94.01;56895.56;5052454;28;20028;-82
2024/04/08 05:26:17;;;;;;;13.85;4.20;;;;;;;-144.05;94.07;56876.44;5024306;28;20492;-86
2024/04/08 05:28:44;;;;;;;5.82;3.58;;;;;;;-144.05;93.90;56887.06;5016748;28;20487;-83
2024/04/08 05:31:10;;;;;;;8.45;3.38;;;;;;;-144.05;93.66;56872.19;5041269;28;20041;-86
2024/04/08 05:33:37;;;;;;;9.90;3.53;;;;;;;-144.05;93.69;56878.56;5025595;28;20392;-87
2024/04/08 05:36:04;;;;;;;4.95;2.67;;;14.70;99.90;;;-144.05;93.25;56891.31;5021759;28;20087;-87
2024/04/08 05:38:31;;;;;;;8.80;3.15;;;;;;;-144.05;93.19;56853.09;5036161;28;20144;-87
2024/04/08 05:41:02;;;;;;;7.43;4.43;;;12.90;99.90;;;-144.05;93.02;56882.81;5033119;28;20030;-89
2024/04/08 05:43:29;;;;;;;6.43;3.55;;;;;;;-144.05;93.22;56861.56;5041172;28;20025;-86
2024/04/08 05:45:55;;;;;;;4.53;2.72;;;;;;;-144.05;93.14;56865.81;5038885;28;20033;-82
2024/04/08 05:48:22;;;;;;;6.35;3.10;;;;;;;-144.05;93.21;56895.56;5041624;28;20029;-85
2024/04/08 05:50:49;;;;;;;8.50;4.22;;;;;;;-144.05;93.17;56865.81;5018221;28;20030;-86
2024/04/08 05:53:16;;;;;;;8.80;3.60;;;;;;;-144.05;93.45;56874.31;5039124;28;20099;-84
2024/04/08 05:55:42;;;;;;;5.93;3.33;;;;;;;-144.05;93.68;56884.94;5019181;28;21423;-84
2024/04/08 05:58:10;;;;;;;6.47;3.33;;;;;;;-144.05;93.68;56893.44;5030103;28;20033;-85
2024/04/08 06:00:37;;;;;;;8.85;2.70;;;;;;;-144.05;93.79;56874.31;5022944;28;20030;-85
2024/04/08 06:03:05;;;;;;;7.75;3.28;;;;;;;-144.05;93.68;56876.44;5022070;28;20053;-85
2024/04/08 06:05:32;;;;;;;8.20;2.88;;;;;;;-144.05;93.05;56876.44;5013629;28;20026;-86
2024/04/08 06:07:58;;;;;;;7.85;2.95;;;;;;;-144.05;92.23;56878.56;5025953;28;20033;-87
2024/04/08 06:10:30;;;;;;;10.38;2.88;;;;;;;-144.05;90.14;56876.44;5032757;28;20119;-86
2024/04/08 06:12:57;;;;;;;8.20;2.70;;;;;;;-144.05;89.49;56874.31;5015643;28;20504;-84
2024/04/08 06:15:24;;;;;;;5.15;2.70;;;15.50;99.90;;;-144.05;88.48;56895.56;5016428;28;20456;-86
2024/04/08 06:17:50;;;;;;;5.55;1.98;;;;;;;-144.05;85.92;56874.31;5015228;28;20040;-88
2024/04/08 06:20:17;;;;;;;4.78;2.03;;;11.30;99.90;;;-144.05;84.31;56870.06;5012394;28;20080;-85
2024/04/08 06:22:44;;;;;;;8.82;2.38;;;;;;;-144.05;82.37;56884.94;5029314;28;20033;-85
2024/04/08 06:25:10;;;;;;;5.72;1.60;;;;;;;-144.05;81.87;56889.19;5025426;28;20034;-85
2024/04/08 06:27:37;;;;;;;5.60;2.08;;;;;;;-144.05;81.04;56887.06;5015331;28;20088;-84
2024/04/08 06:30:04;;;;;;;5.32;1.80;;;16.30;99.90;;;-144.05;79.38;56895.56;5025209;28;20026;-83
2024/04/08 06:32:31;;;;;;;4.22;1.70;;;;;;;-144.05;77.90;56884.94;5031313;28;20107;-86
2024/04/08 06:34:58;;;;;;;7.25;2.00;;;;;;;-144.05;76.74;56884.94;5021274;28;20021;-84
2024/04/08 06:37:23;;;;;;;5.10;1.95;;;16.50;99.90;;;-144.05;75.38;56867.94;5045051;28;20078;-84
2024/04/08 06:39:50;;;;;;;9.35;1.70;;;;;;;-144.05;75.35;56887.06;5015670;28;20049;-84
2024/04/08 06:42:19;;;;;;;3.53;1.45;;;15.50;99.90;;;-144.05;75.29;56914.69;5034890;28;20491;-84
2024/04/08 06:44:50;;;;;;;5.95;2.05;;;15.70;99.90;;;-144.05;75.18;56916.81;5018619;28;20321;-84
2024/04/08 06:47:17;;;;;;;5.68;2.20;;;13.60;99.90;;;-144.05;75.10;56887.06;5032517;28;20085;-84
2024/04/08 06:49:47;;;;;;;3.38;1.90;;;17.20;99.90;;;-144.05;74.71;56880.69;5032385;28;20037;-84
2024/04/08 06:52:13;;;;;;;5.85;1.83;;;;;;;-144.05;73.91;56884.94;5032902;28;20445;-84
2024/04/08 06:54:40;;;;;;;7.57;2.05;;;;;;;-144.05;74.17;56874.31;5022276;28;20044;-83
2024/04/08 06:57:06;;;;;;;5.32;2.13;;;;;;;-144.05;74.16;56865.81;5014812;28;20034;-85
2024/04/08 06:59:32;;;;;;;5.97;2.05;;;;;;;-144.05;73.76;56918.94;5021763;28;20033;-83
2024/04/08 07:01:58;;;;;;;6.15;1.60;;;17.20;99.90;;;-144.05;73.25;56912.56;5027616;28;20029;-86
2024/04/08 07:04:25;;;;;;;6.05;2.20;;;;;;;-144.05;73.33;56910.44;5031840;28;20041;-84
2024/04/08 07:06:51;;;;;;;4.72;1.77;;;;;;;-144.05;73.53;56904.06;5028451;28;20071;-86
2024/04/08 07:09:18;;;;;;;6.03;2.10;;;;;;;-144.05;72.61;56876.44;5048930;28;20030;-84
2024/04/08 07:11:44;;;;;;;5.15;2.10;;;17.50;99.90;;;-144.05;71.67;56891.31;5036651;28;20026;-81
2024/04/08 07:14:13;;;;;;;6.13;2.22;;;;;;;-144.05;71.96;56904.06;5046187;28;20397;-84
2024/04/08 07:16:40;;;;;;;3.97;2.05;;;;;;;-144.05;70.98;56867.94;5021444;28;20053;-84
2024/04/08 07:19:06;;;;;;;6.38;2.22;;;;;;;-144.05;69.82;56910.44;5019130;28;20137;-84
2024/04/08 07:21:32;;;;;;;7.10;1.70;;;;;;;-144.05;69.33;56912.56;5024316;28;20022;-83
2024/04/08 07:23:58;;;;;;;4.25;1.88;;;;;;;-144.05;68.23;56906.19;5046716;28;20125;-83
2024/04/08 07:26:25;;;;;;;3.85;1.70;;;15.00;99.90;;;-144.05;66.85;56918.94;5023840;28;20049;-84
2024/04/08 07:28:52;;;;;;;6.95;1.58;;;;;;;-144.05;67.49;56908.31;5042432;28;20044;-83
2024/04/08 07:32:45;;;;;;;5.25;1.35;;;15.40;99.90;;;-144.05;67.67;56914.69;5479637;25;20350;-79
2024/04/08 07:35:13;;;;;;;4.32;1.80;;;18.50;99.90;;;-144.05;66.05;56895.56;5439076;26;20440;-79
2024/04/08 07:37:39;;;;;;;7.05;1.70;;;18.00;99.90;;;-144.05;65.28;56908.31;5443622;26;20007;-78
2024/04/08 07:40:05;;;;;;;5.07;1.83;;;18.20;99.90;;;-144.05;65.89;56893.44;5436697;26;20482;-78
2024/04/08 07:42:31;;;;;;;5.78;1.52;;;18.20;99.90;;;-144.05;64.85;56906.19;5432289;26;19995;-80
2024/04/08 07:44:58;;;;;;;9.48;2.08;;;18.00;99.90;;;-144.05;66.11;56887.06;5434635;26;20520;-77
2024/04/08 07:47:24;;;;;;;5.47;1.45;;;;;;;-144.05;66.31;56914.69;5374743;21;20447;-86
2024/04/08 07:49:55;;;;;;;5.25;2.22;;;;;;;-144.05;66.06;56906.19;5351506;26;19997;-84
2024/04/08 07:52:21;;;;;;;6.85;2.10;;;17.90;99.90;;;-144.05;65.35;56897.69;5333630;26;20431;-82
2024/04/08 07:54:47;;;;;;;6.53;2.00;;;;;;;-144.05;65.76;56904.06;5362794;26;19997;-82
2024/04/08 07:57:14;;;;;;;6.38;1.98;;;;;;;-144.05;65.96;56906.19;5328673;27;20009;-84
2024/04/08 07:59:40;;;;;;;6.55;1.50;;;;;;;-144.05;65.09;56906.19;5299211;27;20056;-86
2024/04/08 08:02:07;;;;;;;5.32;1.70;;;14.40;99.90;;;-144.05;63.71;56906.19;5293545;27;20006;-84
2024/04/08 08:04:33;;;;;;;3.90;1.88;;;;;;;-144.05;63.57;56912.56;5299734;27;20456;-85
2024/04/08 08:07:00;;;;;;;4.10;1.83;;;;;;;-144.05;63.14;56908.31;5329247;27;20013;-84
2024/04/08 08:09:26;;;;;;;3.60;1.77;;;16.50;99.90;;;-144.05;63.72;56940.16;5299364;27;20008;-85
2024/04/08 08:11:51;;;;;;;6.05;2.20;;;17.30;99.90;;;-144.05;62.64;56910.44;5327119;27;19998;-85
2024/04/08 08:14:17;;;;;;;9.52;2.40;;;20.20;99.90;;;-144.05;61.62;56908.31;5298868;27;20001;-84
2024/04/08 08:16:45;;;;;;;5.72;2.20;;;;;;;-144.05;62.28;56897.69;5298815;27;20069;-84
2024/04/08 08:19:11;;;;;;;4.50;2.30;;;;;;;-144.05;62.02;56916.81;5301151;27;20005;-86
2024/04/08 08:21:37;;;;;;;5.47;2.13;;;20.20;99.90;;;-144.05;60.80;56923.19;5284670;27;20001;-83
2024/04/08 08:24:03;;;;;;;4.53;2.13;;;20.10;99.90;;;-144.05;60.01;56950.78;5331573;26;20071;-86
2024/04/08 08:26:32;;;;;;;6.97;2.70;;;;;;;-144.05;59.87;56933.78;5317511;27;20005;-84
2024/04/08 08:28:58;;;;;;;6.20;3.00;;;;;;;-144.05;61.39;56904.06;5297852;27;20057;-86
2024/04/08 08:31:24;;;;;;;5.85;2.80;;;;;;;-144.05;60.64;56918.94;5327625;27;20016;-84
2024/04/08 08:33:50;;;;;;;8.13;3.10;;;17.10;99.90;;;-144.05;60.82;56933.78;5313246;27;20002;-85
2024/04/08 08:36:16;;;;;;;6.28;3.20;;;;;;;-144.05;61.23;56950.78;5292239;27;20060;-84
2024/04/08 08:38:42;;;;;;;12.55;3.72;;;;;;;-144.05;60.23;56925.28;5315436;27;20092;-86
2024/04/08 08:41:09;;;;;;;10.30;3.83;;;19.40;99.90;;;-144.05;58.82;56944.41;5307293;27;20029;-85
2024/04/08 08:43:39;;;;;;;9.15;3.92;;;19.50;99.90;;;-144.05;58.77;56931.66;5299649;27;20013;-84
2024/04/08 08:46:06;;;;;;;7.63;4.18;;;;;;;-144.05;58.25;56950.78;5302371;27;20455;-86
2024/04/08 08:48:32;;;;;;;9.73;3.78;;;;;;;-144.05;58.84;56948.66;5283971;27;20325;-83
2024/04/08 08:51:00;;;;;;;6.70;3.38;;;;;;;-144.05;57.96;56948.66;5312410;27;20022;-85
2024/04/08 08:53:26;;;;;;;8.82;3.25;;;;;;;-144.05;58.19;56925.28;5283658;27;20014;-83
2024/04/08 08:55:58;;;;;;;8.77;3.70;;;20.00;99.90;;;-144.05;58.97;56942.28;5312331;27;20080;-85
2024/04/08 08:58:25;;;;;;;8.00;4.05;;;;;;;-144.05;56.05;56935.91;5284213;27;20452;-85
2024/04/08 09:00:54;;;;;;;9.25;3.97;;;20.20;99.90;;;-144.05;57.27;56959.28;5283670;27;20013;-84
2024/04/08 09:03:27;;;;;;;6.28;3.63;;;20.50;99.90;;;-144.05;56.42;56929.53;5283792;27;20020;-86
2024/04/08 09:05:55;;;;;;;11.27;4.20;;;;;;;-144.05;56.89;56967.78;5298392;27;20021;-86
2024/04/08 09:08:23;;;;;;;11.55;3.88;;;;;;;-144.05;55.63;56948.66;5277347;27;20002;-83
2024/04/08 09:10:49;;;;;;;6.35;3.35;;;;;;;-144.05;56.30;56942.28;5306207;27;20049;-83
2024/04/08 09:13:26;;;;;;;8.63;4.13;;;19.20;99.90;;;-144.05;58.10;56955.03;5284163;27;20005;-86
2024/04/08 09:15:53;;;;;;;5.88;3.70;;;21.30;99.90;;;-144.05;56.54;56946.53;5282082;27;20075;-83
2024/04/08 09:18:21;;;;;;;9.00;4.30;;;18.70;99.90;;;-144.05;55.75;56957.16;5314338;27;20359;-86
2024/04/08 09:20:47;;;;;;;5.75;3.30;;;;;;;-144.05;56.53;56963.53;5291212;27;19998;-88
2024/04/08 09:23:14;;;;;;;9.55;4.47;;;20.50;99.90;;;-144.05;56.74;56963.53;5306184;26;20044;-80
2024/04/08 09:25:41;;;;;;;13.95;5.13;;;21.00;99.90;;;-144.05;54.90;56980.53;5291742;27;20448;-82
2024/04/08 09:28:08;;;;;;;10.75;4.22;;;;;;;-144.05;56.77;56969.91;5312685;27;20013;-82
2024/04/08 09:30:34;;;;;;;8.77;4.05;;;;;;;-144.05;54.93;56959.28;5283600;27;20036;-84
2024/04/08 09:33:01;;;;;;;7.20;3.70;;;;;;;-144.05;55.43;56946.53;5284057;27;20351;-84
2024/04/08 09:35:28;;;;;;;6.22;3.60;;;22.00;99.90;;;-144.05;54.63;56959.28;5270032;27;20032;-80
2024/04/08 09:37:55;;;;;;;8.73;3.60;;;22.60;99.90;;;-144.05;55.47;56978.41;5283523;27;20006;-84
2024/04/08 09:40:24;;;;;;;9.80;3.85;;;;;;;-144.05;55.96;56963.53;5283961;27;20010;-83
2024/04/08 09:42:53;;;;;;;11.27;4.35;;;21.10;99.90;;;-144.05;53.81;56978.41;5290909;27;20452;-83
2024/04/08 09:45:21;;;;;;;7.95;3.92;;;21.10;99.90;;;-144.05;56.49;56935.91;5283465;27;20344;-81
2024/04/08 09:47:51;;;;;;;7.05;3.75;;;;;;;-144.05;56.54;56972.03;5283733;27;20002;-81
2024/04/08 09:50:18;;;;;;;9.27;4.13;;;20.80;99.90;;;-144.05;54.71;56976.28;5313534;27;20006;-82
2024/04/08 09:52:44;;;;;;;9.65;3.78;;;;;;;-144.05;55.04;56965.66;5283835;27;20010;-84
2024/04/08 09:55:10;;;;;;;9.55;4.10;;;20.90;99.90;;;-144.05;55.41;56965.66;5315631;27;20017;-84
2024/04/08 09:57:43;;;;;;;10.60;3.88;;;22.30;99.90;;;-144.05;54.82;56980.53;5285258;27;20551;-85
2024/04/08 10:00:15;;;;;;;12.52;4.80;;;19.90;99.90;;;-144.05;53.98;56991.13;5285557;27;20016;-84
2024/04/08 10:02:46;;;;;;;5.70;3.08;;;21.50;99.90;;;-144.05;54.01;56965.66;5285109;27;20020;-80
2024/04/08 10:05:13;;;;;;;9.43;3.05;;;23.40;99.90;;;-144.05;53.01;56980.53;5284454;27;20002;-81
2024/04/08 10:07:41;;;;;;;8.30;3.35;;;23.20;99.90;;;-144.05;50.79;56989.00;5315161;27;20008;-81
2024/04/08 10:10:12;;;;;;;10.65;3.33;;;;;;;-144.05;51.58;56978.41;5284402;27;20009;-84
2024/04/08 10:12:42;;;;;;;8.45;3.58;;;19.70;99.90;;;-144.05;54.25;56974.16;5284291;27;20443;-82
2024/04/08 10:15:14;;;;;;;10.68;3.28;;;23.40;99.90;;;-144.05;54.10;56997.50;5313889;27;20020;-81
2024/04/08 10:17:51;;;;;;;9.98;3.53;;;20.50;99.90;;;-144.05;52.88;57006.00;5284602;27;20325;-80
2024/04/08 10:20:21;;;;;;;14.55;4.43;;;;;;;-144.05;52.72;56993.25;5279604;27;20013;-83
2024/04/08 10:22:48;;;;;;;7.18;3.15;;;;;;;-144.05;52.34;56989.00;5312776;27;20328;-83
2024/04/08 10:25:43;;;;;;;9.05;4.15;;;23.80;99.90;;;-144.05;53.70;56989.00;5295998;27;20008;-82
2024/04/08 10:28:18;;;;;;;6.50;3.67;;;22.30;99.90;;;-144.05;51.61;56986.91;5271472;27;20017;-81
2024/04/08 10:30:49;;;;;;;13.52;5.32;;;19.70;99.90;;;-144.05;49.83;57016.63;5284917;27;20002;-82
2024/04/08 10:33:16;;;;;;;7.85;3.80;;;;;;;-144.05;49.30;57018.75;5285426;27;20005;-83
2024/04/08 10:35:42;;;;;;;7.45;3.78;;;;;;;-144.05;49.61;56986.91;5315674;27;20002;-82
2024/04/08 10:38:09;;;;;;;10.18;3.95;;;;;;;-144.05;49.94;56993.25;5285557;27;20013;-82
2024/04/08 10:40:37;;;;;;;9.65;3.80;;;;;;;-144.05;50.56;56991.13;5316025;27;20001;-83
2024/04/08 10:43:03;;;;;;;12.10;3.47;;;;;;;-144.05;51.17;56999.63;5313690;27;20399;-83
2024/04/08 10:45:29;;;;;;;6.90;3.55;;;20.40;99.90;;;-144.05;50.24;57010.25;5315510;27;20016;-85
2024/04/08 10:48:00;;;;;;;8.07;3.33;;;23.60;99.90;;;-144.05;48.90;56978.41;5286062;27;20002;-85
2024/04/08 10:50:30;;;;;;;7.35;3.75;;;20.40;99.90;;;-144.05;48.24;56982.66;5288597;27;20013;-85
2024/04/08 10:52:56;;;;;;;9.55;3.80;;;;;;;-144.05;50.70;57008.13;5305513;27;20493;-83
2024/04/08 10:55:23;;;;;;;7.60;3.70;;;;;;;-144.05;50.34;56967.78;5283579;27;20079;-78